sensor_id;sensor_type;location;lat;lon;timestamp;P1;durP1;ratioP1;P2;durP2;ratioP2
6197;SDS011;3132;42.622;23.328;2023-06-26T00:01:29;29.93;;;22.67;;
6197;SDS011;3132;42.622;23.328;2023-06-26T00:03:56;27.47;;;22.53;;
6197;SDS011;3132;42.622;23.328;2023-06-26T00:06:22;29.57;;;23.17;;
6197;SDS011;3132;42.622;23.328;2023-06-26T00:08:50;28.03;;;23.97;;
6197;SDS011;3132;42.622;23.328;2023-06-26T00:11:20;30.10;;;23.10;;
6197;SDS011;3132;42.622;23.328;2023-06-26T00:13:46;27.70;;;22.57;;
6197;SDS011;3132;42.622;23.328;2023-06-26T00:16:12;30.17;;;23.83;;
6197;SDS011;3132;42.622;23.328;2023-06-26T00:18:37;30.40;;;22.37;;
6197;SDS011;3132;42.622;23.328;2023-06-26T00:21:02;29.53;;;22.60;;
6197;SDS011;3132;42.622;23.328;2023-06-26T00:23:28;25.03;;;22.37;;
6197;SDS011;3132;42.622;23.328;2023-06-26T00:25:55;27.33;;;21.70;;
6197;SDS011;3132;42.622;23.328;2023-06-26T00:28:21;25.50;;;22.43;;
6197;SDS011;3132;42.622;23.328;2023-06-26T00:30:46;26.17;;;21.90;;
6197;SDS011;3132;42.622;23.328;2023-06-26T00:33:11;24.57;;;21.70;;
6197;SDS011;3132;42.622;23.328;2023-06-26T00:35:37;23.60;;;21.10;;
6197;SDS011;3132;42.622;23.328;2023-06-26T00:38:02;26.03;;;20.77;;
6197;SDS011;3132;42.622;23.328;2023-06-26T00:40:28;24.80;;;20.60;;
6197;SDS011;3132;42.622;23.328;2023-06-26T00:42:53;24.77;;;22.17;;
6197;SDS011;3132;42.622;23.328;2023-06-26T00:45:19;24.90;;;21.93;;
6197;SDS011;3132;42.622;23.328;2023-06-26T00:47:44;26.73;;;21.03;;
6197;SDS011;3132;42.622;23.328;2023-06-26T00:50:10;23.03;;;20.70;;
6197;SDS011;3132;42.622;23.328;2023-06-26T00:52:36;21.80;;;19.60;;
6197;SDS011;3132;42.622;23.328;2023-06-26T00:55:02;24.10;;;21.57;;
6197;SDS011;3132;42.622;23.328;2023-06-26T00:57:29;22.53;;;20.10;;
6197;SDS011;3132;42.622;23.328;2023-06-26T00:59:55;24.33;;;21.70;;
6197;SDS011;3132;42.622;23.328;2023-06-26T01:02:21;22.43;;;20.23;;
6197;SDS011;3132;42.622;23.328;2023-06-26T01:04:48;23.37;;;20.37;;
6197;SDS011;3132;42.622;23.328;2023-06-26T01:07:15;22.53;;;19.90;;
6197;SDS011;3132;42.622;23.328;2023-06-26T01:09:43;21.60;;;19.30;;
6197;SDS011;3132;42.622;23.328;2023-06-26T01:12:10;22.77;;;20.60;;
6197;SDS011;3132;42.622;23.328;2023-06-26T01:14:36;24.20;;;19.93;;
6197;SDS011;3132;42.622;23.328;2023-06-26T01:17:02;25.53;;;20.30;;
6197;SDS011;3132;42.622;23.328;2023-06-26T01:19:28;20.70;;;18.70;;
6197;SDS011;3132;42.622;23.328;2023-06-26T01:21:59;22.30;;;20.00;;
6197;SDS011;3132;42.622;23.328;2023-06-26T01:24:27;22.10;;;19.73;;
6197;SDS011;3132;42.622;23.328;2023-06-26T01:27:02;21.77;;;19.57;;
6197;SDS011;3132;42.622;23.328;2023-06-26T01:29:28;26.37;;;20.67;;
6197;SDS011;3132;42.622;23.328;2023-06-26T01:31:56;22.20;;;19.77;;
6197;SDS011;3132;42.622;23.328;2023-06-26T01:34:22;22.90;;;20.30;;
6197;SDS011;3132;42.622;23.328;2023-06-26T01:36:48;22.73;;;20.23;;
6197;SDS011;3132;42.622;23.328;2023-06-26T01:39:18;21.13;;;19.13;;
6197;SDS011;3132;42.622;23.328;2023-06-26T01:41:44;23.80;;;21.23;;
6197;SDS011;3132;42.622;23.328;2023-06-26T01:44:26;21.30;;;19.00;;
6197;SDS011;3132;42.622;23.328;2023-06-26T01:47:12;24.73;;;20.20;;
6197;SDS011;3132;42.622;23.328;2023-06-26T01:55:35;22.47;;;20.07;;
6197;SDS011;3132;42.622;23.328;2023-06-26T01:58:06;22.00;;;19.80;;
6197;SDS011;3132;42.622;23.328;2023-06-26T02:00:31;24.33;;;20.77;;
6197;SDS011;3132;42.622;23.328;2023-06-26T02:02:58;23.17;;;20.87;;
6197;SDS011;3132;42.622;23.328;2023-06-26T02:05:23;22.40;;;20.00;;
6197;SDS011;3132;42.622;23.328;2023-06-26T02:07:49;23.30;;;20.93;;
6197;SDS011;3132;42.622;23.328;2023-06-26T02:10:16;25.60;;;19.33;;
6197;SDS011;3132;42.622;23.328;2023-06-26T02:12:41;25.27;;;21.43;;
6197;SDS011;3132;42.622;23.328;2023-06-26T02:15:07;22.87;;;18.77;;
6197;SDS011;3132;42.622;23.328;2023-06-26T02:17:33;26.10;;;20.87;;
6197;SDS011;3132;42.622;23.328;2023-06-26T02:19:58;21.43;;;19.23;;
6197;SDS011;3132;42.622;23.328;2023-06-26T02:22:24;21.57;;;19.40;;
6197;SDS011;3132;42.622;23.328;2023-06-26T02:24:49;24.10;;;20.43;;
6197;SDS011;3132;42.622;23.328;2023-06-26T02:27:14;25.80;;;22.43;;
6197;SDS011;3132;42.622;23.328;2023-06-26T02:29:40;24.30;;;22.03;;
6197;SDS011;3132;42.622;23.328;2023-06-26T02:32:06;22.57;;;20.20;;
6197;SDS011;3132;42.622;23.328;2023-06-26T02:34:32;23.80;;;21.33;;
6197;SDS011;3132;42.622;23.328;2023-06-26T02:36:58;24.03;;;21.43;;
6197;SDS011;3132;42.622;23.328;2023-06-26T02:39:25;23.50;;;21.10;;
6197;SDS011;3132;42.622;23.328;2023-06-26T02:41:51;26.60;;;21.37;;
6197;SDS011;3132;42.622;23.328;2023-06-26T02:44:16;25.20;;;22.30;;
6197;SDS011;3132;42.622;23.328;2023-06-26T02:46:42;23.83;;;21.33;;
6197;SDS011;3132;42.622;23.328;2023-06-26T02:49:07;24.77;;;22.20;;
6197;SDS011;3132;42.622;23.328;2023-06-26T02:51:33;24.67;;;21.77;;
6197;SDS011;3132;42.622;23.328;2023-06-26T02:53:59;25.50;;;22.80;;
6197;SDS011;3132;42.622;23.328;2023-06-26T02:56:25;26.47;;;21.57;;
6197;SDS011;3132;42.622;23.328;2023-06-26T02:58:54;25.00;;;22.47;;
6197;SDS011;3132;42.622;23.328;2023-06-26T03:01:19;27.87;;;22.10;;
6197;SDS011;3132;42.622;23.328;2023-06-26T03:03:45;29.23;;;24.27;;
6197;SDS011;3132;42.622;23.328;2023-06-26T03:06:12;27.80;;;23.93;;
6197;SDS011;3132;42.622;23.328;2023-06-26T03:08:38;24.80;;;22.23;;
6197;SDS011;3132;42.622;23.328;2023-06-26T03:11:04;25.90;;;23.27;;
6197;SDS011;3132;42.622;23.328;2023-06-26T03:13:31;26.23;;;23.47;;
6197;SDS011;3132;42.622;23.328;2023-06-26T03:15:57;25.83;;;22.70;;
6197;SDS011;3132;42.622;23.328;2023-06-26T03:18:22;27.17;;;23.43;;
6197;SDS011;3132;42.622;23.328;2023-06-26T03:20:48;27.53;;;23.63;;
6197;SDS011;3132;42.622;23.328;2023-06-26T03:23:13;25.83;;;22.07;;
6197;SDS011;3132;42.622;23.328;2023-06-26T03:25:38;25.73;;;23.07;;
6197;SDS011;3132;42.622;23.328;2023-06-26T03:28:04;25.40;;;22.70;;
6197;SDS011;3132;42.622;23.328;2023-06-26T03:30:29;26.27;;;22.83;;
6197;SDS011;3132;42.622;23.328;2023-06-26T03:32:54;26.77;;;23.07;;
6197;SDS011;3132;42.622;23.328;2023-06-26T03:35:20;26.43;;;23.63;;
6197;SDS011;3132;42.622;23.328;2023-06-26T03:37:45;26.30;;;23.43;;
6197;SDS011;3132;42.622;23.328;2023-06-26T03:40:11;26.43;;;23.73;;
6197;SDS011;3132;42.622;23.328;2023-06-26T03:42:36;25.80;;;23.00;;
6197;SDS011;3132;42.622;23.328;2023-06-26T03:45:02;26.33;;;22.87;;
6197;SDS011;3132;42.622;23.328;2023-06-26T03:47:27;26.17;;;22.63;;
6197;SDS011;3132;42.622;23.328;2023-06-26T03:49:53;25.07;;;22.50;;
6197;SDS011;3132;42.622;23.328;2023-06-26T03:52:18;25.77;;;23.20;;
6197;SDS011;3132;42.622;23.328;2023-06-26T03:54:43;29.80;;;22.60;;
6197;SDS011;3132;42.622;23.328;2023-06-26T03:57:09;24.90;;;22.23;;
6197;SDS011;3132;42.622;23.328;2023-06-26T03:59:34;25.10;;;22.50;;
6197;SDS011;3132;42.622;23.328;2023-06-26T04:02:01;28.30;;;22.63;;
6197;SDS011;3132;42.622;23.328;2023-06-26T04:04:26;24.80;;;22.10;;
6197;SDS011;3132;42.622;23.328;2023-06-26T04:06:51;25.60;;;22.73;;
6197;SDS011;3132;42.622;23.328;2023-06-26T04:09:17;27.50;;;22.43;;
6197;SDS011;3132;42.622;23.328;2023-06-26T04:11:42;22.50;;;20.30;;
6197;SDS011;3132;42.622;23.328;2023-06-26T04:14:07;23.37;;;21.07;;
6197;SDS011;3132;42.622;23.328;2023-06-26T04:16:33;23.47;;;21.07;;
6197;SDS011;3132;42.622;23.328;2023-06-26T04:18:58;22.43;;;20.07;;
6197;SDS011;3132;42.622;23.328;2023-06-26T04:21:24;23.97;;;21.73;;
6197;SDS011;3132;42.622;23.328;2023-06-26T04:23:49;23.30;;;20.80;;
6197;SDS011;3132;42.622;23.328;2023-06-26T04:26:15;23.70;;;21.20;;
6197;SDS011;3132;42.622;23.328;2023-06-26T04:28:41;22.40;;;20.20;;
6197;SDS011;3132;42.622;23.328;2023-06-26T04:31:07;22.40;;;20.20;;
6197;SDS011;3132;42.622;23.328;2023-06-26T04:33:33;21.43;;;19.43;;
6197;SDS011;3132;42.622;23.328;2023-06-26T04:36:01;21.60;;;19.47;;
6197;SDS011;3132;42.622;23.328;2023-06-26T04:38:28;22.05;;;19.65;;
6197;SDS011;3132;42.622;23.328;2023-06-26T04:40:53;20.13;;;18.23;;
6197;SDS011;3132;42.622;23.328;2023-06-26T04:43:19;20.95;;;18.52;;
6197;SDS011;3132;42.622;23.328;2023-06-26T04:45:44;20.67;;;18.30;;
6197;SDS011;3132;42.622;23.328;2023-06-26T04:48:10;23.25;;;18.52;;
6197;SDS011;3132;42.622;23.328;2023-06-26T04:50:35;20.83;;;18.88;;
6197;SDS011;3132;42.622;23.328;2023-06-26T04:53:01;20.50;;;18.55;;
6197;SDS011;3132;42.622;23.328;2023-06-26T04:55:27;21.20;;;19.10;;
6197;SDS011;3132;42.622;23.328;2023-06-26T04:57:53;21.38;;;19.38;;
6197;SDS011;3132;42.622;23.328;2023-06-26T05:00:18;21.60;;;19.65;;
6197;SDS011;3132;42.622;23.328;2023-06-26T05:02:44;22.48;;;20.08;;
6197;SDS011;3132;42.622;23.328;2023-06-26T05:05:10;21.77;;;19.58;;
6197;SDS011;3132;42.622;23.328;2023-06-26T05:07:36;21.95;;;19.77;;
6197;SDS011;3132;42.622;23.328;2023-06-26T05:10:02;20.60;;;18.50;;
6197;SDS011;3132;42.622;23.328;2023-06-26T05:12:27;21.60;;;19.50;;
6197;SDS011;3132;42.622;23.328;2023-06-26T05:14:53;20.83;;;18.83;;
6197;SDS011;3132;42.622;23.328;2023-06-26T05:17:18;20.25;;;18.25;;
6197;SDS011;3132;42.622;23.328;2023-06-26T05:19:43;19.73;;;17.80;;
6197;SDS011;3132;42.622;23.328;2023-06-26T05:22:09;19.80;;;18.00;;
6197;SDS011;3132;42.622;23.328;2023-06-26T05:24:35;19.48;;;17.58;;
6197;SDS011;3132;42.622;23.328;2023-06-26T05:27:01;19.30;;;17.50;;
6197;SDS011;3132;42.622;23.328;2023-06-26T05:29:27;19.45;;;17.65;;
6197;SDS011;3132;42.622;23.328;2023-06-26T05:31:53;19.20;;;17.35;;
6197;SDS011;3132;42.622;23.328;2023-06-26T05:34:22;19.13;;;17.33;;
6197;SDS011;3132;42.622;23.328;2023-06-26T05:36:49;19.83;;;17.55;;
6197;SDS011;3132;42.622;23.328;2023-06-26T05:39:16;18.70;;;16.83;;
6197;SDS011;3132;42.622;23.328;2023-06-26T05:41:43;18.80;;;16.98;;
6197;SDS011;3132;42.622;23.328;2023-06-26T05:44:09;17.77;;;16.08;;
6197;SDS011;3132;42.622;23.328;2023-06-26T05:46:34;18.73;;;16.85;;
6197;SDS011;3132;42.622;23.328;2023-06-26T05:49:01;18.63;;;16.75;;
6197;SDS011;3132;42.622;23.328;2023-06-26T05:51:27;17.92;;;16.13;;
6197;SDS011;3132;42.622;23.328;2023-06-26T05:53:53;18.25;;;16.42;;
6197;SDS011;3132;42.622;23.328;2023-06-26T05:56:18;19.85;;;16.25;;
6197;SDS011;3132;42.622;23.328;2023-06-26T05:58:44;18.45;;;16.65;;
6197;SDS011;3132;42.622;23.328;2023-06-26T06:01:10;18.50;;;16.55;;
6197;SDS011;3132;42.622;23.328;2023-06-26T06:03:36;19.38;;;17.38;;
6197;SDS011;3132;42.622;23.328;2023-06-26T06:06:02;18.35;;;16.45;;
6197;SDS011;3132;42.622;23.328;2023-06-26T06:08:28;18.63;;;16.60;;
6197;SDS011;3132;42.622;23.328;2023-06-26T06:10:53;19.90;;;16.73;;
6197;SDS011;3132;42.622;23.328;2023-06-26T06:13:19;18.45;;;16.50;;
6197;SDS011;3132;42.622;23.328;2023-06-26T06:15:44;17.98;;;16.27;;
6197;SDS011;3132;42.622;23.328;2023-06-26T06:18:10;17.50;;;15.90;;
6197;SDS011;3132;42.622;23.328;2023-06-26T06:20:35;17.85;;;15.98;;
6197;SDS011;3132;42.622;23.328;2023-06-26T06:23:00;17.08;;;15.48;;
6197;SDS011;3132;42.622;23.328;2023-06-26T06:25:26;16.55;;;14.88;;
6197;SDS011;3132;42.622;23.328;2023-06-26T06:27:51;17.20;;;15.38;;
6197;SDS011;3132;42.622;23.328;2023-06-26T06:30:17;17.92;;;16.13;;
6197;SDS011;3132;42.622;23.328;2023-06-26T06:32:42;15.15;;;13.65;;
6197;SDS011;3132;42.622;23.328;2023-06-26T06:35:08;14.98;;;13.52;;
6197;SDS011;3132;42.622;23.328;2023-06-26T06:37:35;15.98;;;14.68;;
6197;SDS011;3132;42.622;23.328;2023-06-26T06:40:08;17.17;;;15.45;;
6197;SDS011;3132;42.622;23.328;2023-06-26T06:42:34;17.20;;;15.60;;
6197;SDS011;3132;42.622;23.328;2023-06-26T06:45:03;17.42;;;15.63;;
6197;SDS011;3132;42.622;23.328;2023-06-26T06:47:30;19.00;;;17.40;;
6197;SDS011;3132;42.622;23.328;2023-06-26T06:49:56;17.63;;;15.98;;
6197;SDS011;3132;42.622;23.328;2023-06-26T06:52:22;18.20;;;16.48;;
6197;SDS011;3132;42.622;23.328;2023-06-26T06:54:51;18.77;;;16.65;;
6197;SDS011;3132;42.622;23.328;2023-06-26T06:57:21;17.85;;;16.23;;
6197;SDS011;3132;42.622;23.328;2023-06-26T06:59:46;18.15;;;16.25;;
6197;SDS011;3132;42.622;23.328;2023-06-26T07:02:13;18.00;;;16.38;;
6197;SDS011;3132;42.622;23.328;2023-06-26T07:04:39;16.95;;;15.35;;
6197;SDS011;3132;42.622;23.328;2023-06-26T07:07:04;17.10;;;15.65;;
6197;SDS011;3132;42.622;23.328;2023-06-26T07:09:30;17.30;;;15.50;;
6197;SDS011;3132;42.622;23.328;2023-06-26T07:11:55;16.17;;;14.65;;
6197;SDS011;3132;42.622;23.328;2023-06-26T07:14:21;15.27;;;13.98;;
6197;SDS011;3132;42.622;23.328;2023-06-26T07:16:46;15.52;;;13.95;;
6197;SDS011;3132;42.622;23.328;2023-06-26T07:19:11;14.93;;;13.63;;
6197;SDS011;3132;42.622;23.328;2023-06-26T07:21:37;16.02;;;14.65;;
6197;SDS011;3132;42.622;23.328;2023-06-26T07:24:02;17.05;;;15.20;;
6197;SDS011;3132;42.622;23.328;2023-06-26T07:26:27;16.48;;;14.65;;
6197;SDS011;3132;42.622;23.328;2023-06-26T07:28:53;15.93;;;14.45;;
6197;SDS011;3132;42.622;23.328;2023-06-26T07:31:21;14.20;;;12.93;;
6197;SDS011;3132;42.622;23.328;2023-06-26T07:33:47;14.88;;;13.15;;
6197;SDS011;3132;42.622;23.328;2023-06-26T07:36:12;13.77;;;12.70;;
6197;SDS011;3132;42.622;23.328;2023-06-26T07:38:37;16.25;;;12.98;;
6197;SDS011;3132;42.622;23.328;2023-06-26T07:41:03;13.30;;;12.10;;
6197;SDS011;3132;42.622;23.328;2023-06-26T07:43:28;13.68;;;12.27;;
6197;SDS011;3132;42.622;23.328;2023-06-26T07:45:54;15.32;;;13.93;;
6197;SDS011;3132;42.622;23.328;2023-06-26T07:48:19;13.80;;;12.70;;
6197;SDS011;3132;42.622;23.328;2023-06-26T07:50:44;15.10;;;12.02;;
6197;SDS011;3132;42.622;23.328;2023-06-26T07:53:10;11.57;;;10.68;;
6197;SDS011;3132;42.622;23.328;2023-06-26T07:55:35;11.93;;;10.95;;
6197;SDS011;3132;42.622;23.328;2023-06-26T07:58:00;13.82;;;12.52;;
6197;SDS011;3132;42.622;23.328;2023-06-26T08:00:26;13.95;;;12.70;;
6197;SDS011;3132;42.622;23.328;2023-06-26T08:02:52;13.75;;;12.45;;
6197;SDS011;3132;42.622;23.328;2023-06-26T08:05:17;13.45;;;12.02;;
6197;SDS011;3132;42.622;23.328;2023-06-26T08:07:43;13.52;;;12.32;;
6197;SDS011;3132;42.622;23.328;2023-06-26T08:10:08;10.98;;;10.15;;
6197;SDS011;3132;42.622;23.328;2023-06-26T08:12:34;11.80;;;10.80;;
6197;SDS011;3132;42.622;23.328;2023-06-26T08:15:01;11.82;;;10.93;;
6197;SDS011;3132;42.622;23.328;2023-06-26T08:17:28;13.27;;;12.10;;
6197;SDS011;3132;42.622;23.328;2023-06-26T08:19:53;14.60;;;11.80;;
6197;SDS011;3132;42.622;23.328;2023-06-26T08:22:18;13.27;;;12.18;;
6197;SDS011;3132;42.622;23.328;2023-06-26T08:24:44;20.23;;;12.85;;
6197;SDS011;3132;42.622;23.328;2023-06-26T08:27:09;17.55;;;12.32;;
6197;SDS011;3132;42.622;23.328;2023-06-26T08:29:35;14.70;;;12.57;;
6197;SDS011;3132;42.622;23.328;2023-06-26T08:32:00;11.40;;;10.30;;
6197;SDS011;3132;42.622;23.328;2023-06-26T08:34:27;11.82;;;10.93;;
6197;SDS011;3132;42.622;23.328;2023-06-26T08:36:52;12.20;;;11.10;;
6197;SDS011;3132;42.622;23.328;2023-06-26T08:39:18;11.90;;;11.00;;
6197;SDS011;3132;42.622;23.328;2023-06-26T08:41:44;11.63;;;10.77;;
6197;SDS011;3132;42.622;23.328;2023-06-26T08:44:09;13.18;;;12.00;;
6197;SDS011;3132;42.622;23.328;2023-06-26T08:46:35;14.20;;;13.05;;
6197;SDS011;3132;42.622;23.328;2023-06-26T08:49:02;12.65;;;11.63;;
6197;SDS011;3132;42.622;23.328;2023-06-26T08:51:39;12.50;;;11.52;;
6197;SDS011;3132;42.622;23.328;2023-06-26T08:54:09;12.57;;;11.68;;
6197;SDS011;3132;42.622;23.328;2023-06-26T08:56:42;12.50;;;11.52;;
6197;SDS011;3132;42.622;23.328;2023-06-26T08:59:09;12.55;;;11.65;;
6197;SDS011;3132;42.622;23.328;2023-06-26T09:01:39;13.45;;;12.27;;
6197;SDS011;3132;42.622;23.328;2023-06-26T09:04:05;11.73;;;10.75;;
6197;SDS011;3132;42.622;23.328;2023-06-26T09:06:31;12.20;;;11.10;;
6197;SDS011;3132;42.622;23.328;2023-06-26T09:08:57;13.30;;;12.30;;
6197;SDS011;3132;42.622;23.328;2023-06-26T09:11:22;12.25;;;11.35;;
6197;SDS011;3132;42.622;23.328;2023-06-26T09:13:48;11.85;;;10.88;;
6197;SDS011;3132;42.622;23.328;2023-06-26T09:16:13;12.43;;;11.48;;
6197;SDS011;3132;42.622;23.328;2023-06-26T09:18:40;11.50;;;10.52;;
6197;SDS011;3132;42.622;23.328;2023-06-26T09:21:07;11.13;;;10.32;;
6197;SDS011;3132;42.622;23.328;2023-06-26T09:23:34;12.43;;;11.23;;
6197;SDS011;3132;42.622;23.328;2023-06-26T09:26:02;12.00;;;11.10;;
6197;SDS011;3132;42.622;23.328;2023-06-26T09:28:29;12.45;;;11.32;;
6197;SDS011;3132;42.622;23.328;2023-06-26T09:30:55;11.70;;;10.80;;
6197;SDS011;3132;42.622;23.328;2023-06-26T09:33:26;12.48;;;10.95;;
6197;SDS011;3132;42.622;23.328;2023-06-26T09:35:51;12.45;;;11.35;;
6197;SDS011;3132;42.622;23.328;2023-06-26T09:38:17;12.02;;;11.02;;
6197;SDS011;3132;42.622;23.328;2023-06-26T09:40:43;11.93;;;10.93;;
6197;SDS011;3132;42.622;23.328;2023-06-26T09:43:09;11.93;;;10.73;;
6197;SDS011;3132;42.622;23.328;2023-06-26T09:45:39;11.80;;;10.80;;
6197;SDS011;3132;42.622;23.328;2023-06-26T09:48:04;12.32;;;11.32;;
6197;SDS011;3132;42.622;23.328;2023-06-26T09:50:33;12.23;;;11.13;;
6197;SDS011;3132;42.622;23.328;2023-06-26T09:53:09;12.10;;;11.10;;
6197;SDS011;3132;42.622;23.328;2023-06-26T09:55:36;12.07;;;11.13;;
6197;SDS011;3132;42.622;23.328;2023-06-26T09:58:02;12.50;;;10.98;;
6197;SDS011;3132;42.622;23.328;2023-06-26T10:00:29;12.20;;;11.15;;
6197;SDS011;3132;42.622;23.328;2023-06-26T10:02:56;11.43;;;10.45;;
6197;SDS011;3132;42.622;23.328;2023-06-26T10:05:21;12.07;;;11.07;;
6197;SDS011;3132;42.622;23.328;2023-06-26T10:07:46;13.02;;;10.65;;
6197;SDS011;3132;42.622;23.328;2023-06-26T10:10:13;11.50;;;10.60;;
6197;SDS011;3132;42.622;23.328;2023-06-26T10:12:41;12.40;;;10.30;;
6197;SDS011;3132;42.622;23.328;2023-06-26T10:15:10;10.77;;;9.98;;
6197;SDS011;3132;42.622;23.328;2023-06-26T10:17:39;11.43;;;10.43;;
6197;SDS011;3132;42.622;23.328;2023-06-26T10:20:08;11.13;;;10.32;;
6197;SDS011;3132;42.622;23.328;2023-06-26T10:22:36;10.57;;;9.88;;
6197;SDS011;3132;42.622;23.328;2023-06-26T10:25:06;11.07;;;10.15;;
6197;SDS011;3132;42.622;23.328;2023-06-26T10:27:36;11.65;;;10.55;;
6197;SDS011;3132;42.622;23.328;2023-06-26T10:30:06;12.02;;;10.93;;
6197;SDS011;3132;42.622;23.328;2023-06-26T10:32:37;15.98;;;10.27;;
6197;SDS011;3132;42.622;23.328;2023-06-26T10:35:05;11.35;;;10.35;;
6197;SDS011;3132;42.622;23.328;2023-06-26T10:37:44;10.55;;;9.85;;
6197;SDS011;3132;42.622;23.328;2023-06-26T10:40:12;11.45;;;10.55;;
6197;SDS011;3132;42.622;23.328;2023-06-26T10:42:38;10.90;;;10.00;;
6197;SDS011;3132;42.622;23.328;2023-06-26T10:47:39;11.73;;;10.93;;
6197;SDS011;3132;42.622;23.328;2023-06-26T10:50:28;12.57;;;11.57;;
6197;SDS011;3132;42.622;23.328;2023-06-26T10:55:56;11.55;;;10.40;;
6197;SDS011;3132;42.622;23.328;2023-06-26T10:58:27;11.18;;;10.27;;
6197;SDS011;3132;42.622;23.328;2023-06-26T11:01:16;16.40;;;11.65;;
6197;SDS011;3132;42.622;23.328;2023-06-26T11:03:46;12.23;;;11.23;;
6197;SDS011;3132;42.622;23.328;2023-06-26T11:06:24;11.45;;;10.50;;
6197;SDS011;3132;42.622;23.328;2023-06-26T11:14:29;12.63;;;11.57;;
6197;SDS011;3132;42.622;23.328;2023-06-26T11:16:56;12.27;;;11.30;;
6197;SDS011;3132;42.622;23.328;2023-06-26T11:19:25;12.63;;;11.55;;
6197;SDS011;3132;42.622;23.328;2023-06-26T11:21:54;13.50;;;12.38;;
6197;SDS011;3132;42.622;23.328;2023-06-26T11:24:24;12.95;;;11.63;;
6197;SDS011;3132;42.622;23.328;2023-06-26T11:26:50;12.15;;;11.10;;
6197;SDS011;3132;42.622;23.328;2023-06-26T11:29:15;13.05;;;11.95;;
6197;SDS011;3132;42.622;23.328;2023-06-26T11:31:41;13.10;;;11.98;;
6197;SDS011;3132;42.622;23.328;2023-06-26T11:34:08;12.65;;;11.48;;
6197;SDS011;3132;42.622;23.328;2023-06-26T11:36:36;12.48;;;11.43;;
6197;SDS011;3132;42.622;23.328;2023-06-26T11:39:03;12.05;;;10.95;;
6197;SDS011;3132;42.622;23.328;2023-06-26T11:41:33;13.23;;;12.15;;
6197;SDS011;3132;42.622;23.328;2023-06-26T11:44:03;12.95;;;11.60;;
6197;SDS011;3132;42.622;23.328;2023-06-26T11:46:30;12.90;;;11.65;;
6197;SDS011;3132;42.622;23.328;2023-06-26T11:48:56;10.98;;;10.18;;
6197;SDS011;3132;42.622;23.328;2023-06-26T11:51:21;13.48;;;11.05;;
6197;SDS011;3132;42.622;23.328;2023-06-26T11:53:47;11.52;;;10.52;;
6197;SDS011;3132;42.622;23.328;2023-06-26T11:56:17;11.35;;;10.27;;
6197;SDS011;3132;42.622;23.328;2023-06-26T11:58:58;16.73;;;15.13;;
6197;SDS011;3132;42.622;23.328;2023-06-26T12:01:49;12.85;;;11.55;;
6197;SDS011;3132;42.622;23.328;2023-06-26T12:04:16;13.52;;;12.00;;
6197;SDS011;3132;42.622;23.328;2023-06-26T12:06:48;11.73;;;10.68;;
6197;SDS011;3132;42.622;23.328;2023-06-26T12:09:16;13.15;;;12.05;;
6197;SDS011;3132;42.622;23.328;2023-06-26T12:11:44;11.75;;;10.85;;
6197;SDS011;3132;42.622;23.328;2023-06-26T12:14:13;11.98;;;10.70;;
6197;SDS011;3132;42.622;23.328;2023-06-26T12:16:40;12.95;;;11.77;;
6197;SDS011;3132;42.622;23.328;2023-06-26T12:19:06;11.48;;;10.57;;
6197;SDS011;3132;42.622;23.328;2023-06-26T12:24:12;12.15;;;11.25;;
6197;SDS011;3132;42.622;23.328;2023-06-26T12:26:43;11.65;;;10.75;;
6197;SDS011;3132;42.622;23.328;2023-06-26T12:29:13;12.15;;;11.05;;
6197;SDS011;3132;42.622;23.328;2023-06-26T12:31:40;11.75;;;10.85;;
6197;SDS011;3132;42.622;23.328;2023-06-26T12:34:11;11.20;;;10.40;;
6197;SDS011;3132;42.622;23.328;2023-06-26T12:36:43;12.10;;;11.00;;
6197;SDS011;3132;42.622;23.328;2023-06-26T12:39:18;12.10;;;11.00;;
6197;SDS011;3132;42.622;23.328;2023-06-26T12:44:21;12.05;;;11.05;;
6197;SDS011;3132;42.622;23.328;2023-06-26T12:46:54;12.15;;;11.05;;
6197;SDS011;3132;42.622;23.328;2023-06-26T12:49:31;11.95;;;11.13;;
6197;SDS011;3132;42.622;23.328;2023-06-26T12:52:01;10.70;;;9.90;;
6197;SDS011;3132;42.622;23.328;2023-06-26T12:54:28;12.50;;;11.40;;
6197;SDS011;3132;42.622;23.328;2023-06-26T12:56:54;11.20;;;10.30;;
6197;SDS011;3132;42.622;23.328;2023-06-26T12:59:20;13.88;;;12.23;;
6197;SDS011;3132;42.622;23.328;2023-06-26T13:01:46;12.88;;;11.77;;
6197;SDS011;3132;42.622;23.328;2023-06-26T13:04:12;12.18;;;11.27;;
6197;SDS011;3132;42.622;23.328;2023-06-26T13:06:37;12.88;;;11.57;;
6197;SDS011;3132;42.622;23.328;2023-06-26T13:09:03;13.13;;;11.90;;
6197;SDS011;3132;42.622;23.328;2023-06-26T13:11:29;11.80;;;10.90;;
6197;SDS011;3132;42.622;23.328;2023-06-26T13:13:55;12.18;;;11.18;;
6197;SDS011;3132;42.622;23.328;2023-06-26T13:16:20;12.05;;;11.05;;
6197;SDS011;3132;42.622;23.328;2023-06-26T13:18:46;11.88;;;10.65;;
6197;SDS011;3132;42.622;23.328;2023-06-26T13:21:12;12.57;;;11.48;;
6197;SDS011;3132;42.622;23.328;2023-06-26T13:23:37;12.18;;;11.25;;
6197;SDS011;3132;42.622;23.328;2023-06-26T13:26:03;12.00;;;11.10;;
6197;SDS011;3132;42.622;23.328;2023-06-26T13:28:28;13.27;;;12.13;;
6197;SDS011;3132;42.622;23.328;2023-06-26T13:30:53;12.82;;;11.57;;
6197;SDS011;3132;42.622;23.328;2023-06-26T13:33:19;12.80;;;11.80;;
6197;SDS011;3132;42.622;23.328;2023-06-26T13:35:44;12.00;;;11.05;;
6197;SDS011;3132;42.622;23.328;2023-06-26T13:38:10;12.07;;;11.20;;
6197;SDS011;3132;42.622;23.328;2023-06-26T13:40:35;13.40;;;12.27;;
6197;SDS011;3132;42.622;23.328;2023-06-26T13:43:01;11.18;;;10.38;;
6197;SDS011;3132;42.622;23.328;2023-06-26T13:45:26;12.45;;;11.55;;
6197;SDS011;3132;42.622;23.328;2023-06-26T13:47:51;12.50;;;11.43;;
6197;SDS011;3132;42.622;23.328;2023-06-26T13:50:17;11.57;;;10.45;;
6197;SDS011;3132;42.622;23.328;2023-06-26T13:52:42;12.32;;;11.25;;
6197;SDS011;3132;42.622;23.328;2023-06-26T13:55:07;11.82;;;10.95;;
6197;SDS011;3132;42.622;23.328;2023-06-26T13:57:33;12.65;;;11.45;;
6197;SDS011;3132;42.622;23.328;2023-06-26T13:59:59;11.52;;;10.57;;
6197;SDS011;3132;42.622;23.328;2023-06-26T14:02:24;11.82;;;10.82;;
6197;SDS011;3132;42.622;23.328;2023-06-26T14:04:51;12.43;;;11.07;;
6197;SDS011;3132;42.622;23.328;2023-06-26T14:07:16;16.52;;;11.43;;
6197;SDS011;3132;42.622;23.328;2023-06-26T14:09:42;12.43;;;11.15;;
6197;SDS011;3132;42.622;23.328;2023-06-26T14:12:07;13.30;;;12.15;;
6197;SDS011;3132;42.622;23.328;2023-06-26T14:14:33;13.13;;;12.02;;
6197;SDS011;3132;42.622;23.328;2023-06-26T14:16:58;12.30;;;11.10;;
6197;SDS011;3132;42.622;23.328;2023-06-26T14:19:24;13.48;;;12.40;;
6197;SDS011;3132;42.622;23.328;2023-06-26T14:21:50;13.70;;;12.43;;
6197;SDS011;3132;42.622;23.328;2023-06-26T14:24:16;12.32;;;11.25;;
6197;SDS011;3132;42.622;23.328;2023-06-26T14:26:41;13.27;;;12.18;;
6197;SDS011;3132;42.622;23.328;2023-06-26T14:29:07;11.95;;;10.68;;
6197;SDS011;3132;42.622;23.328;2023-06-26T14:31:32;12.27;;;11.10;;
6197;SDS011;3132;42.622;23.328;2023-06-26T14:33:57;11.57;;;10.48;;
6197;SDS011;3132;42.622;23.328;2023-06-26T14:36:24;11.43;;;10.63;;
6197;SDS011;3132;42.622;23.328;2023-06-26T14:38:49;11.77;;;10.73;;
6197;SDS011;3132;42.622;23.328;2023-06-26T14:41:15;11.70;;;10.88;;
6197;SDS011;3132;42.622;23.328;2023-06-26T14:43:40;11.68;;;10.27;;
6197;SDS011;3132;42.622;23.328;2023-06-26T14:46:06;12.23;;;11.13;;
6197;SDS011;3132;42.622;23.328;2023-06-26T14:48:31;11.60;;;10.70;;
6197;SDS011;3132;42.622;23.328;2023-06-26T14:50:56;11.60;;;10.48;;
6197;SDS011;3132;42.622;23.328;2023-06-26T14:53:22;12.15;;;11.18;;
6197;SDS011;3132;42.622;23.328;2023-06-26T14:55:47;10.88;;;10.07;;